createdAt,value
2018-02-11T00:00:03.740Z,2.43
2018-02-11T00:00:07.630Z,2.32
2018-02-11T00:00:11.316Z,2.29
2018-02-11T00:00:14.998Z,2.41
2018-02-11T00:00:18.999Z,2.33
2018-02-11T00:00:22.897Z,2.4
2018-02-11T00:00:26.736Z,2.3
2018-02-11T00:00:30.833Z,2.3
2018-02-11T00:00:34.933Z,2.4
2018-02-11T00:00:38.825Z,2.37
2018-02-11T00:00:42.826Z,2.4
2018-02-11T00:00:46.821Z,2.38
2018-02-11T00:00:50.814Z,2.29
2018-02-11T00:00:54.705Z,2.32
2018-02-11T00:00:58.808Z,2.41
2018-02-11T00:01:02.741Z,2.43
2018-02-11T00:01:06.633Z,2.38
2018-02-11T00:01:10.631Z,2.44
2018-02-11T00:01:14.313Z,2.4
2018-02-11T00:01:17.995Z,2.38
2018-02-11T00:01:21.679Z,2.4
2018-02-11T00:01:25.363Z,2.3
2018-02-11T00:01:29.154Z,2.37
2018-02-11T00:01:33.054Z,2.41
2018-02-11T00:01:36.992Z,2.33
2018-02-11T00:01:41.096Z,2.41
2018-02-11T00:01:44.984Z,2.38
2018-02-11T00:01:48.876Z,2.45
2018-02-11T00:01:52.990Z,2.4
2018-02-11T00:01:56.882Z,2.38
2018-02-11T00:02:00.777Z,2.38
2018-02-11T00:02:04.778Z,2.36
2018-02-11T00:02:08.884Z,2.37
2018-02-11T00:02:12.666Z,2.43
2018-02-11T00:02:16.771Z,2.4
2018-02-11T00:02:20.564Z,2.45
2018-02-11T00:02:24.561Z,2.38
2018-02-11T00:02:28.242Z,2.37
2018-02-11T00:02:32.236Z,2.36
2018-02-11T00:02:35.921Z,2.43
2018-02-11T00:02:39.612Z,2.41
2018-02-11T00:02:43.713Z,2.36
2018-02-11T00:02:47.925Z,2.36
2018-02-11T00:02:51.818Z,2.36
2018-02-11T00:02:55.818Z,2.44
2018-02-11T00:02:59.610Z,2.41
2018-02-11T00:03:04.074Z,2.33
2018-02-11T00:03:08.180Z,2.41
2018-02-11T00:03:12.176Z,2.43
2018-02-11T00:03:15.963Z,2.4
2018-02-11T00:03:20.077Z,2.4
2018-02-11T00:03:23.975Z,2.43
2018-02-11T00:03:27.877Z,2.38
2018-02-11T00:03:31.665Z,2.41
2018-02-11T00:03:35.557Z,2.36
2018-02-11T00:03:39.661Z,2.37
2018-02-11T00:03:43.566Z,2.43
2018-02-11T00:03:47.773Z,2.38
2018-02-11T00:03:51.663Z,2.37
2018-02-11T00:03:55.662Z,2.38
2018-02-11T00:03:59.661Z,2.38
2018-02-11T00:04:03.558Z,2.36
2018-02-11T00:04:07.454Z,2.44
2018-02-11T00:04:11.348Z,2.4
2018-02-11T00:04:15.556Z,2.4
2018-02-11T00:04:19.348Z,2.44
2018-02-11T00:04:23.039Z,2.36
2018-02-11T00:04:26.721Z,2.41
2018-02-11T00:04:30.516Z,2.33
2018-02-11T00:04:34.411Z,2.41
2018-02-11T00:04:38.307Z,2.44
2018-02-11T00:04:42.312Z,2.44
2018-02-11T00:04:46.419Z,2.33
2018-02-11T00:04:50.618Z,2.38
2018-02-11T00:04:54.412Z,2.38
2018-02-11T00:04:58.519Z,2.38
2018-02-11T00:05:02.726Z,2.41
2018-02-11T00:05:06.627Z,2.38
2018-02-11T00:05:10.528Z,2.41
2018-02-11T00:05:14.427Z,2.32
2018-02-11T00:05:18.318Z,2.37
2018-02-11T00:05:22.311Z,2.4
2018-02-11T00:05:26.202Z,2.44
2018-02-11T00:05:29.884Z,2.32
2018-02-11T00:05:33.673Z,2.41
2018-02-11T00:05:37.782Z,2.43
2018-02-11T00:05:41.672Z,2.37
2018-02-11T00:05:45.567Z,2.33
2018-02-11T00:05:49.249Z,2.38
2018-02-11T00:05:53.145Z,2.43
2018-02-11T00:05:57.036Z,2.4
2018-02-11T00:06:01.036Z,2.32
2018-02-11T00:06:05.137Z,2.4
2018-02-11T00:06:09.036Z,2.38
2018-02-11T00:06:12.934Z,2.43
2018-02-11T00:06:16.824Z,2.33
2018-02-11T00:06:20.926Z,2.32
2018-02-11T00:06:25.033Z,2.4
2018-02-11T00:06:28.828Z,2.41
2018-02-11T00:06:32.828Z,2.41
2018-02-11T00:06:36.717Z,2.41
2018-02-11T00:06:40.608Z,2.38
2018-02-11T00:06:44.605Z,2.4
2018-02-11T00:06:48.723Z,2.38
2018-02-11T00:06:52.618Z,2.4
2018-02-11T00:06:56.405Z,2.33
2018-02-11T00:07:00.310Z,2.38
2018-02-11T00:07:04.498Z,2.43
2018-02-11T00:07:08.287Z,2.41
2018-02-11T00:07:12.084Z,2.29
2018-02-11T00:07:16.076Z,2.33
2018-02-11T00:07:20.289Z,2.27
2018-02-11T00:07:24.078Z,2.4
2018-02-11T00:07:28.077Z,2.37
2018-02-11T00:07:31.981Z,2.36
2018-02-11T00:07:35.877Z,2.33
2018-02-11T00:07:39.774Z,2.36
2018-02-11T00:07:43.671Z,2.32
2018-02-11T00:07:47.672Z,2.36
2018-02-11T00:07:51.565Z,2.37
2018-02-11T00:07:55.565Z,2.36
2018-02-11T00:07:59.469Z,2.4
2018-02-11T00:08:03.922Z,2.43
2018-02-11T00:08:07.603Z,2.44
2018-02-11T00:08:11.702Z,2.43
2018-02-11T00:08:15.705Z,2.4
2018-02-11T00:08:19.915Z,2.37
2018-02-11T00:08:24.021Z,2.38
2018-02-11T00:08:28.025Z,2.38
2018-02-11T00:08:32.233Z,2.36
2018-02-11T00:08:36.129Z,2.33
2018-02-11T00:08:40.231Z,2.44
2018-02-11T00:08:44.336Z,2.4
2018-02-11T00:08:48.658Z,2.37
2018-02-11T00:08:52.763Z,2.36
2018-02-11T00:08:56.548Z,2.36
2018-02-11T00:09:00.446Z,2.36
2018-02-11T00:09:04.442Z,2.33
2018-02-11T00:09:08.228Z,2.33
2018-02-11T00:09:12.231Z,2.37
2018-02-11T00:09:16.120Z,2.41
2018-02-11T00:09:20.062Z,2.33
2018-02-11T00:09:24.179Z,2.36
2018-02-11T00:09:28.183Z,2.4
2018-02-11T00:09:31.974Z,2.36
2018-02-11T00:09:35.867Z,2.33
2018-02-11T00:09:39.662Z,2.36
2018-02-11T00:09:43.449Z,2.29
2018-02-11T00:09:47.451Z,2.36
2018-02-11T00:09:51.443Z,2.43
2018-02-11T00:09:55.233Z,2.36
2018-02-11T00:09:59.131Z,2.36
2018-02-11T00:10:03.376Z,2.36
2018-02-11T00:10:07.489Z,2.4
2018-02-11T00:10:11.599Z,2.33
2018-02-11T00:10:15.495Z,2.3
2018-02-11T00:10:19.390Z,2.36
2018-02-11T00:10:23.396Z,2.38
2018-02-11T00:10:27.289Z,2.33
2018-02-11T00:10:31.405Z,2.36
2018-02-11T00:10:35.195Z,2.38
2018-02-11T00:10:39.415Z,2.33
2018-02-11T00:10:43.209Z,2.36
2018-02-11T00:10:47.312Z,2.29
2018-02-11T00:10:51.410Z,2.27
2018-02-11T00:10:55.198Z,2.36
2018-02-11T00:10:59.254Z,2.36
2018-02-11T00:11:03.929Z,2.29
2018-02-11T00:11:07.931Z,2.29
2018-02-11T00:11:11.829Z,2.29
2018-02-11T00:11:15.730Z,2.38
2018-02-11T00:11:19.522Z,2.36
2018-02-11T00:11:23.206Z,2.36
2018-02-11T00:11:27.419Z,2.33
2018-02-11T00:11:31.320Z,2.33
2018-02-11T00:11:35.318Z,2.29
2018-02-11T00:11:39.413Z,2.33
2018-02-11T00:11:43.302Z,2.37
2018-02-11T00:11:47.191Z,2.36
2018-02-11T00:11:51.089Z,2.29
2018-02-11T00:11:55.084Z,2.33
2018-02-11T00:11:59.081Z,2.36
2018-02-11T00:12:03.127Z,2.38
2018-02-11T00:12:06.918Z,2.32
2018-02-11T00:12:11.127Z,2.32
2018-02-11T00:12:15.132Z,2.32
2018-02-11T00:12:19.025Z,2.38
2018-02-11T00:12:23.141Z,2.44
2018-02-11T00:12:26.928Z,2.36
2018-02-11T00:12:30.817Z,2.3
2018-02-11T00:12:34.811Z,2.32
2018-02-11T00:12:38.493Z,2.37
2018-02-11T00:12:42.278Z,2.32
2018-02-11T00:12:46.067Z,2.27
2018-02-11T00:12:50.180Z,2.29
2018-02-11T00:12:54.074Z,2.33
2018-02-11T00:12:57.969Z,2.38
2018-02-11T00:13:01.755Z,2.4
2018-02-11T00:13:05.895Z,2.29
2018-02-11T00:13:09.691Z,2.33
2018-02-11T00:13:13.579Z,2.37
2018-02-11T00:13:17.575Z,2.29
2018-02-11T00:13:21.366Z,2.29
2018-02-11T00:13:25.372Z,2.4
2018-02-11T00:13:29.170Z,2.32
2018-02-11T00:13:33.377Z,2.36
2018-02-11T00:13:37.476Z,2.26
2018-02-11T00:13:41.368Z,2.36
2018-02-11T00:13:45.366Z,2.27
2018-02-11T00:13:49.683Z,2.26
2018-02-11T00:13:53.751Z,2.37
2018-02-11T00:13:57.748Z,2.3
2018-02-11T00:14:01.535Z,2.32
2018-02-11T00:14:05.434Z,2.32
2018-02-11T00:14:09.432Z,2.3
2018-02-11T00:14:13.543Z,2.36
2018-02-11T00:14:17.338Z,2.37
2018-02-11T00:14:21.342Z,2.36
2018-02-11T00:14:25.450Z,2.27
2018-02-11T00:14:29.450Z,2.32
2018-02-11T00:14:33.349Z,2.29
2018-02-11T00:14:37.242Z,2.3
2018-02-11T00:14:41.023Z,2.32
2018-02-11T00:14:44.813Z,2.3
2018-02-11T00:14:48.811Z,2.36
2018-02-11T00:14:52.816Z,2.3
2018-02-11T00:14:56.698Z,2.4
2018-02-11T00:15:00.589Z,2.32
2018-02-11T00:15:05.062Z,2.3
2018-02-11T00:15:08.959Z,2.33
2018-02-11T00:15:13.059Z,2.27
2018-02-11T00:15:17.059Z,2.38
2018-02-11T00:15:20.845Z,2.38
2018-02-11T00:15:24.841Z,2.32
2018-02-11T00:15:28.740Z,2.3
2018-02-11T00:15:32.529Z,2.37
2018-02-11T00:15:36.531Z,2.29
2018-02-11T00:15:40.222Z,2.41
2018-02-11T00:15:44.112Z,2.41
2018-02-11T00:15:47.797Z,2.43
2018-02-11T00:15:51.695Z,2.3
2018-02-11T00:15:55.695Z,2.41
2018-02-11T00:15:59.485Z,2.27
2018-02-11T00:16:03.432Z,2.44
2018-02-11T00:16:07.322Z,2.41
2018-02-11T00:16:11.117Z,2.36
2018-02-11T00:16:15.234Z,2.43
2018-02-11T00:16:19.233Z,2.27
2018-02-11T00:16:23.233Z,2.27
2018-02-11T00:16:26.916Z,2.38
2018-02-11T00:16:30.813Z,2.29
2018-02-11T00:16:34.806Z,2.38
2018-02-11T00:16:38.697Z,2.36
2018-02-11T00:16:42.593Z,2.3
2018-02-11T00:16:46.384Z,2.29
2018-02-11T00:16:50.380Z,2.4
2018-02-11T00:16:54.387Z,2.33
2018-02-11T00:16:58.279Z,2.33
2018-02-11T00:17:02.374Z,2.33
2018-02-11T00:17:06.323Z,2.32
2018-02-11T00:17:10.323Z,2.29
2018-02-11T00:17:14.427Z,2.41
2018-02-11T00:17:18.649Z,2.44
2018-02-11T00:17:22.432Z,2.3
2018-02-11T00:17:26.426Z,2.37
2018-02-11T00:17:30.212Z,2.38
2018-02-11T00:17:34.344Z,2.33
2018-02-11T00:17:38.131Z,2.32
2018-02-11T00:17:42.130Z,2.3
2018-02-11T00:17:46.129Z,2.32
2018-02-11T00:17:50.233Z,2.41
2018-02-11T00:17:54.341Z,2.33
2018-02-11T00:17:58.441Z,2.33
2018-02-11T00:18:02.746Z,2.38
2018-02-11T00:18:06.646Z,2.37
2018-02-11T00:18:10.651Z,2.29
2018-02-11T00:18:14.656Z,2.33
2018-02-11T00:18:18.546Z,2.3
2018-02-11T00:18:22.653Z,2.27
2018-02-11T00:18:26.451Z,2.29
2018-02-11T00:18:30.233Z,2.3
2018-02-11T00:18:34.226Z,2.33
2018-02-11T00:18:38.329Z,2.29
2018-02-11T00:18:42.538Z,2.33
2018-02-11T00:18:46.743Z,2.36
2018-02-11T00:18:50.527Z,2.29
2018-02-11T00:18:54.520Z,2.33
2018-02-11T00:18:58.517Z,2.37
2018-02-11T00:19:02.408Z,2.27
2018-02-11T00:19:06.619Z,2.41
2018-02-11T00:19:10.406Z,2.38
2018-02-11T00:19:14.398Z,2.3
2018-02-11T00:19:18.406Z,2.32
2018-02-11T00:19:22.297Z,2.32
2018-02-11T00:19:26.195Z,2.3
2018-02-11T00:19:29.990Z,2.38
2018-02-11T00:19:33.805Z,2.3
2018-02-11T00:19:37.692Z,2.4
2018-02-11T00:19:41.377Z,2.29
2018-02-11T00:19:45.480Z,2.41
2018-02-11T00:19:49.582Z,2.32
2018-02-11T00:19:53.686Z,2.26
2018-02-11T00:19:57.688Z,2.38
2018-02-11T00:20:01.369Z,2.4
2018-02-11T00:20:05.732Z,2.32
2018-02-11T00:20:09.516Z,2.38
2018-02-11T00:20:13.518Z,2.29
2018-02-11T00:20:17.523Z,2.3
2018-02-11T00:20:21.738Z,2.33
2018-02-11T00:20:25.733Z,2.32
2018-02-11T00:20:29.520Z,2.33
2018-02-11T00:20:33.414Z,2.3
2018-02-11T00:20:37.308Z,2.3
2018-02-11T00:20:41.202Z,2.33
2018-02-11T00:20:44.985Z,2.4
2018-02-11T00:20:48.880Z,2.32
2018-02-11T00:20:52.672Z,2.32
2018-02-11T00:20:56.674Z,2.41
2018-02-11T00:21:00.564Z,2.37
2018-02-11T00:21:04.664Z,2.3
2018-02-11T00:21:08.558Z,2.27
2018-02-11T00:21:12.559Z,2.38
2018-02-11T00:21:16.347Z,2.36
2018-02-11T00:21:20.339Z,2.36
2018-02-11T00:21:24.228Z,2.3
2018-02-11T00:21:28.231Z,2.29
2018-02-11T00:21:32.232Z,2.33
2018-02-11T00:21:36.230Z,2.33
2018-02-11T00:21:40.227Z,2.29
2018-02-11T00:21:44.119Z,2.32
2018-02-11T00:21:48.007Z,2.29
2018-02-11T00:21:51.802Z,2.3
2018-02-11T00:21:55.590Z,2.37
2018-02-11T00:21:59.637Z,2.29
2018-02-11T00:22:03.569Z,2.29
2018-02-11T00:22:07.462Z,2.27
2018-02-11T00:22:11.357Z,2.26
2018-02-11T00:22:15.347Z,2.23
2018-02-11T00:22:19.346Z,2.26
2018-02-11T00:22:23.452Z,2.37
2018-02-11T00:22:27.560Z,2.36
2018-02-11T00:22:31.556Z,2.33
2018-02-11T00:22:35.448Z,2.27
2018-02-11T00:22:39.462Z,2.32
2018-02-11T00:22:43.363Z,2.23
2018-02-11T00:22:47.358Z,2.32
2018-02-11T00:22:51.260Z,2.26
2018-02-11T00:22:54.946Z,2.26
2018-02-11T00:22:58.841Z,2.32
2018-02-11T00:23:02.942Z,2.29
2018-02-11T00:23:06.834Z,2.25
2018-02-11T00:23:10.928Z,2.32
2018-02-11T00:23:15.038Z,2.3
2018-02-11T00:23:19.039Z,2.22
2018-02-11T00:23:22.928Z,2.25
2018-02-11T00:23:27.031Z,2.26
2018-02-11T00:23:31.028Z,2.3
2018-02-11T00:23:35.029Z,2.26
2018-02-11T00:23:39.024Z,2.27
2018-02-11T00:23:43.230Z,2.3
2018-02-11T00:23:47.123Z,2.26
2018-02-11T00:23:51.125Z,2.23
2018-02-11T00:23:55.229Z,2.26
2018-02-11T00:23:59.224Z,2.3
2018-02-11T00:24:03.332Z,2.27
2018-02-11T00:24:07.328Z,2.26
2018-02-11T00:24:11.653Z,2.27
2018-02-11T00:24:15.441Z,2.25
2018-02-11T00:24:19.440Z,2.29
2018-02-11T00:24:23.226Z,2.22
2018-02-11T00:24:27.229Z,2.23
2018-02-11T00:24:31.019Z,2.23
2018-02-11T00:24:34.914Z,2.27
2018-02-11T00:24:38.812Z,2.25
2018-02-11T00:24:42.600Z,2.3
2018-02-11T00:24:46.494Z,2.25
2018-02-11T00:24:50.393Z,2.23
2018-02-11T00:24:54.179Z,2.26
2018-02-11T00:24:57.962Z,2.26
2018-02-11T00:25:02.007Z,2.29
2018-02-11T00:25:06.272Z,2.29
2018-02-11T00:25:10.486Z,2.29
2018-02-11T00:25:14.377Z,2.3
2018-02-11T00:25:18.169Z,2.23
2018-02-11T00:25:22.061Z,2.23
2018-02-11T00:25:25.950Z,2.23
2018-02-11T00:25:29.846Z,2.27
2018-02-11T00:25:33.950Z,2.26
2018-02-11T00:25:37.949Z,2.26
2018-02-11T00:25:41.635Z,2.27
2018-02-11T00:25:45.682Z,2.27
2018-02-11T00:25:49.474Z,2.26
2018-02-11T00:25:53.261Z,2.3
2018-02-11T00:25:57.266Z,2.3
2018-02-11T00:26:00.948Z,2.23
2018-02-11T00:26:04.843Z,2.22
2018-02-11T00:26:08.734Z,2.23
2018-02-11T00:26:12.731Z,2.26
2018-02-11T00:26:16.518Z,2.27
2018-02-11T00:26:20.519Z,2.29
2018-02-11T00:26:24.202Z,2.27
2018-02-11T00:26:28.203Z,2.2
2018-02-11T00:26:32.036Z,2.27
2018-02-11T00:26:35.920Z,2.32
2018-02-11T00:26:39.707Z,2.3
2018-02-11T00:26:43.599Z,2.3
2018-02-11T00:26:47.596Z,2.2
2018-02-11T00:26:51.594Z,2.32
2018-02-11T00:26:55.708Z,2.26
2018-02-11T00:26:59.815Z,2.32
2018-02-11T00:27:03.602Z,2.3
2018-02-11T00:27:07.280Z,2.26
2018-02-11T00:27:11.281Z,2.29
2018-02-11T00:27:15.273Z,2.3
2018-02-11T00:27:19.163Z,2.26
2018-02-11T00:27:23.223Z,2.26
2018-02-11T00:27:27.124Z,2.25
2018-02-11T00:27:30.809Z,2.32
2018-02-11T00:27:34.702Z,2.3
2018-02-11T00:27:38.597Z,2.29
2018-02-11T00:27:42.598Z,2.33
2018-02-11T00:27:46.285Z,2.37
2018-02-11T00:27:50.179Z,2.32
2018-02-11T00:27:54.185Z,2.36
2018-02-11T00:27:58.074Z,2.29
2018-02-11T00:28:02.225Z,2.3
2018-02-11T00:28:06.326Z,2.36
2018-02-11T00:28:10.318Z,2.32
2018-02-11T00:28:14.112Z,2.3
2018-02-11T00:28:18.325Z,2.26
2018-02-11T00:28:22.325Z,2.33
2018-02-11T00:28:26.112Z,2.37
2018-02-11T00:28:30.109Z,2.33
2018-02-11T00:28:34.002Z,2.29
2018-02-11T00:28:38.002Z,2.26
2018-02-11T00:28:41.890Z,2.38
2018-02-11T00:28:45.884Z,2.32
2018-02-11T00:28:49.879Z,2.22
2018-02-11T00:28:53.670Z,2.26
2018-02-11T00:28:57.354Z,2.33
2018-02-11T00:29:01.254Z,2.33
2018-02-11T00:29:05.047Z,2.27
2018-02-11T00:29:09.046Z,2.29
2018-02-11T00:29:13.041Z,2.29
2018-02-11T00:29:16.828Z,2.3
2018-02-11T00:29:20.929Z,2.32
2018-02-11T00:29:24.853Z,2.26
2018-02-11T00:29:28.735Z,2.32
2018-02-11T00:29:32.521Z,2.26
2018-02-11T00:29:36.414Z,2.32
2018-02-11T00:29:40.205Z,2.27
2018-02-11T00:29:44.320Z,2.26
2018-02-11T00:29:48.111Z,2.22
2018-02-11T00:29:52.004Z,2.33
2018-02-11T00:29:56.004Z,2.27
2018-02-11T00:30:00.010Z,2.23
2018-02-11T00:30:03.928Z,2.22
2018-02-11T00:30:07.926Z,2.23
2018-02-11T00:30:11.822Z,2.25
2018-02-11T00:30:15.824Z,2.3
2018-02-11T00:30:19.820Z,2.25
2018-02-11T00:30:23.508Z,2.27
2018-02-11T00:30:27.300Z,2.23
2018-02-11T00:30:31.195Z,2.25
2018-02-11T00:30:35.040Z,2.25
2018-02-11T00:30:39.144Z,2.3
2018-02-11T00:30:43.042Z,2.25
2018-02-11T00:30:46.938Z,2.29
2018-02-11T00:30:50.719Z,2.27
2018-02-11T00:30:54.504Z,2.26
2018-02-11T00:30:58.710Z,2.26
2018-02-11T00:31:02.595Z,2.29
2018-02-11T00:31:06.599Z,2.23
2018-02-11T00:31:10.596Z,2.29
2018-02-11T00:31:14.602Z,2.26
2018-02-11T00:31:18.396Z,2.25
2018-02-11T00:31:22.400Z,2.26
2018-02-11T00:31:26.192Z,2.27
2018-02-11T00:31:30.186Z,2.27
2018-02-11T00:31:33.971Z,2.25
2018-02-11T00:31:37.775Z,2.3
2018-02-11T00:31:41.675Z,2.22
2018-02-11T00:31:45.686Z,2.26
2018-02-11T00:31:49.905Z,2.23
2018-02-11T00:31:53.907Z,2.29
2018-02-11T00:31:57.911Z,2.27
2018-02-11T00:32:01.907Z,2.26
2018-02-11T00:32:06.123Z,2.3
2018-02-11T00:32:10.017Z,2.27
2018-02-11T00:32:14.020Z,2.3
2018-02-11T00:32:17.806Z,2.26
2018-02-11T00:32:21.693Z,2.29
2018-02-11T00:32:25.693Z,2.3
2018-02-11T00:32:29.693Z,2.2
2018-02-11T00:32:33.588Z,2.3
2018-02-11T00:32:37.377Z,2.23
2018-02-11T00:32:41.482Z,2.25
2018-02-11T00:32:45.272Z,2.26
2018-02-11T00:32:49.379Z,2.29
2018-02-11T00:32:53.283Z,2.26
2018-02-11T00:32:57.176Z,2.3
2018-02-11T00:33:00.961Z,2.33
2018-02-11T00:33:04.959Z,2.25
2018-02-11T00:33:08.746Z,2.29
2018-02-11T00:33:12.529Z,2.29
2018-02-11T00:33:16.434Z,2.3
2018-02-11T00:33:20.217Z,2.3
2018-02-11T00:33:24.106Z,2.3
2018-02-11T00:33:27.997Z,2.23
2018-02-11T00:33:32.093Z,2.29
2018-02-11T00:33:36.198Z,2.3
2018-02-11T00:33:40.097Z,2.26
2018-02-11T00:33:43.887Z,2.27
2018-02-11T00:33:48.102Z,2.29
2018-02-11T00:33:52.200Z,2.27
2018-02-11T00:33:56.088Z,2.25
2018-02-11T00:33:59.868Z,2.23
2018-02-11T00:34:03.867Z,2.29
2018-02-11T00:34:07.759Z,2.3
2018-02-11T00:34:11.655Z,2.25
2018-02-11T00:34:15.561Z,2.25
2018-02-11T00:34:19.349Z,2.25
2018-02-11T00:34:23.041Z,2.25
2018-02-11T00:34:26.934Z,2.22
2018-02-11T00:34:30.824Z,2.23
2018-02-11T00:34:34.716Z,2.26
2018-02-11T00:34:38.814Z,2.26
2018-02-11T00:34:42.819Z,2.22
2018-02-11T00:34:46.928Z,2.33
2018-02-11T00:34:50.816Z,2.26
2018-02-11T00:34:54.598Z,2.23
2018-02-11T00:34:58.280Z,2.27
2018-02-11T00:35:02.338Z,2.22
2018-02-11T00:35:06.232Z,2.22
2018-02-11T00:35:10.015Z,2.29
2018-02-11T00:35:13.907Z,2.26
2018-02-11T00:35:17.796Z,2.29
2018-02-11T00:35:21.590Z,2.22
2018-02-11T00:35:25.587Z,2.26
2018-02-11T00:35:29.589Z,2.26
2018-02-11T00:35:33.389Z,2.3
2018-02-11T00:35:37.279Z,2.22
2018-02-11T00:35:41.186Z,2.22
2018-02-11T00:35:44.974Z,2.25
2018-02-11T00:35:48.870Z,2.25
2018-02-11T00:35:52.972Z,2.25
2018-02-11T00:35:56.762Z,2.29
2018-02-11T00:36:00.658Z,2.25
2018-02-11T00:36:05.223Z,2.27
2018-02-11T00:36:08.910Z,2.26
2018-02-11T00:36:12.805Z,2.25
2018-02-11T00:36:16.700Z,2.26
2018-02-11T00:36:20.745Z,2.27
2018-02-11T00:36:24.593Z,2.26
2018-02-11T00:36:28.379Z,2.26
2018-02-11T00:36:32.272Z,2.29
2018-02-11T00:36:35.957Z,2.29
2018-02-11T00:36:39.848Z,2.26
2018-02-11T00:36:43.639Z,2.26
2018-02-11T00:36:47.640Z,2.27
2018-02-11T00:36:51.857Z,2.19
2018-02-11T00:36:55.749Z,2.36
2018-02-11T00:36:59.437Z,2.23
2018-02-11T00:37:03.543Z,2.27
2018-02-11T00:37:07.436Z,2.25
2018-02-11T00:37:11.124Z,2.22
2018-02-11T00:37:14.917Z,2.26
2018-02-11T00:37:19.020Z,2.25
2018-02-11T00:37:23.015Z,2.22
2018-02-11T00:37:27.021Z,2.22
2018-02-11T00:37:31.021Z,2.15
2018-02-11T00:37:35.012Z,2.23
2018-02-11T00:37:38.908Z,2.22
2018-02-11T00:37:42.904Z,2.25
2018-02-11T00:37:46.902Z,2.19
2018-02-11T00:37:51.005Z,2.23
2018-02-11T00:37:54.795Z,2.2
2018-02-11T00:37:58.788Z,2.18
2018-02-11T00:38:02.687Z,2.14
2018-02-11T00:38:06.479Z,2.25
2018-02-11T00:38:10.475Z,2.26
2018-02-11T00:38:14.474Z,2.3
2018-02-11T00:38:18.577Z,2.2
2018-02-11T00:38:22.264Z,2.23
2018-02-11T00:38:26.371Z,2.3
2018-02-11T00:38:30.160Z,2.25
2018-02-11T00:38:33.946Z,2.25
2018-02-11T00:38:37.837Z,2.23
2018-02-11T00:38:41.832Z,2.23
2018-02-11T00:38:45.723Z,2.22
2018-02-11T00:38:49.719Z,2.23
2018-02-11T00:38:53.719Z,2.22
2018-02-11T00:38:57.511Z,2.25
2018-02-11T00:39:01.298Z,2.23
2018-02-11T00:39:05.395Z,2.25
2018-02-11T00:39:09.398Z,2.2
2018-02-11T00:39:13.296Z,2.22
2018-02-11T00:39:17.300Z,2.27
2018-02-11T00:39:21.091Z,2.22
2018-02-11T00:39:25.090Z,2.18
2018-02-11T00:39:28.881Z,2.3
2018-02-11T00:39:32.877Z,2.23
2018-02-11T00:39:36.662Z,2.29
2018-02-11T00:39:40.555Z,2.22
2018-02-11T00:39:44.235Z,2.27
2018-02-11T00:39:48.236Z,2.3
2018-02-11T00:39:52.135Z,2.26
2018-02-11T00:39:56.134Z,2.32
2018-02-11T00:39:59.922Z,2.26
2018-02-11T00:40:04.279Z,2.25
2018-02-11T00:40:08.277Z,2.2
2018-02-11T00:40:12.168Z,2.25
2018-02-11T00:40:16.195Z,2.22
2018-02-11T00:40:19.948Z,2.32
2018-02-11T00:40:23.840Z,2.23
2018-02-11T00:40:27.730Z,2.19
2018-02-11T00:40:31.517Z,2.25
2018-02-11T00:40:35.308Z,2.23
2018-02-11T00:40:39.202Z,2.23
2018-02-11T00:40:43.095Z,2.2
2018-02-11T00:40:46.886Z,2.23
2018-02-11T00:40:51.107Z,2.2
2018-02-11T00:40:55.102Z,2.23
2018-02-11T00:40:58.997Z,2.2
2018-02-11T00:41:03.348Z,2.25
2018-02-11T00:41:07.049Z,2.23
2018-02-11T00:41:11.258Z,2.19
2018-02-11T00:41:15.290Z,2.22
2018-02-11T00:41:19.187Z,2.2
2018-02-11T00:41:23.399Z,2.22
2018-02-11T00:41:27.190Z,2.26
2018-02-11T00:41:31.187Z,2.29
2018-02-11T00:41:34.971Z,2.23
2018-02-11T00:41:38.865Z,2.27
2018-02-11T00:41:42.653Z,2.18
2018-02-11T00:41:46.648Z,2.27
2018-02-11T00:41:50.644Z,2.25
2018-02-11T00:41:54.754Z,2.22
2018-02-11T00:41:58.642Z,2.26
2018-02-11T00:42:02.690Z,2.27
2018-02-11T00:42:06.583Z,2.3
2018-02-11T00:42:10.578Z,2.25
2018-02-11T00:42:14.266Z,2.25
2018-02-11T00:42:18.158Z,2.22
2018-02-11T00:42:22.056Z,2.3
2018-02-11T00:42:25.839Z,2.22
2018-02-11T00:42:29.524Z,2.29
2018-02-11T00:42:33.316Z,2.23
2018-02-11T00:42:37.110Z,2.25
2018-02-11T00:42:41.004Z,2.25
2018-02-11T00:42:44.897Z,2.29
2018-02-11T00:42:48.999Z,2.22
2018-02-11T00:42:53.106Z,2.2
2018-02-11T00:42:57.209Z,2.19
2018-02-11T00:43:01.100Z,2.2
2018-02-11T00:43:05.401Z,2.23
2018-02-11T00:43:09.402Z,2.2
2018-02-11T00:43:13.506Z,2.27
2018-02-11T00:43:17.500Z,2.2
2018-02-11T00:43:21.387Z,2.18
2018-02-11T00:43:25.281Z,2.26
2018-02-11T00:43:29.385Z,2.25
2018-02-11T00:43:33.485Z,2.25
2018-02-11T00:43:37.801Z,2.14
2018-02-11T00:43:41.696Z,2.29
2018-02-11T00:43:45.794Z,2.14
2018-02-11T00:43:49.788Z,2.18
2018-02-11T00:43:53.898Z,2.15
2018-02-11T00:43:57.792Z,2.25
2018-02-11T00:44:01.788Z,2.27
2018-02-11T00:44:06.045Z,2.14
2018-02-11T00:44:09.932Z,2.2
2018-02-11T00:44:13.824Z,2.25
2018-02-11T00:44:17.821Z,2.18
2018-02-11T00:44:21.614Z,2.26
2018-02-11T00:44:25.302Z,2.18
2018-02-11T00:44:29.313Z,2.18
2018-02-11T00:44:33.100Z,2.19
2018-02-11T00:44:37.100Z,2.18
2018-02-11T00:44:40.992Z,2.08
2018-02-11T00:44:44.889Z,2.2
2018-02-11T00:44:48.676Z,2.18
2018-02-11T00:44:52.566Z,2.18
2018-02-11T00:44:56.463Z,2.26
2018-02-11T00:45:00.456Z,2.12
2018-02-11T00:45:04.666Z,2.12
2018-02-11T00:45:08.771Z,2.22
2018-02-11T00:45:12.558Z,2.18
2018-02-11T00:45:16.661Z,2.23
2018-02-11T00:45:20.453Z,2.18
2018-02-11T00:45:24.448Z,2.18
2018-02-11T00:45:28.346Z,2.12
2018-02-11T00:45:32.244Z,2.18
2018-02-11T00:45:36.244Z,2.14
2018-02-11T00:45:40.245Z,2.09
2018-02-11T00:45:44.036Z,2.12
2018-02-11T00:45:48.040Z,2.18
2018-02-11T00:45:52.054Z,2.11
2018-02-11T00:45:56.157Z,2.11
2018-02-11T00:46:00.157Z,2.12
2018-02-11T00:46:04.150Z,2.08
2018-02-11T00:46:07.936Z,2.12
2018-02-11T00:46:11.726Z,2.18
2018-02-11T00:46:15.410Z,2.11
2018-02-11T00:46:19.407Z,2.09
2018-02-11T00:46:23.516Z,2.09
2018-02-11T00:46:27.411Z,2.14
2018-02-11T00:46:31.309Z,2.09
2018-02-11T00:46:35.204Z,2.07
2018-02-11T00:46:38.991Z,2.11
2018-02-11T00:46:42.988Z,2.14
2018-02-11T00:46:46.983Z,2.12
2018-02-11T00:46:50.979Z,2.08
2018-02-11T00:46:54.977Z,2.12
2018-02-11T00:46:58.766Z,2.07
2018-02-11T00:47:02.666Z,2.11
2018-02-11T00:47:06.452Z,2.11
2018-02-11T00:47:10.447Z,2.09
2018-02-11T00:47:14.346Z,2.14
2018-02-11T00:47:18.551Z,2.14
2018-02-11T00:47:22.549Z,2.11
2018-02-11T00:47:26.444Z,2.11
2018-02-11T00:47:30.336Z,2.09
2018-02-11T00:47:34.338Z,2.14
2018-02-11T00:47:38.123Z,2.11
2018-02-11T00:47:41.910Z,2.09
2018-02-11T00:47:45.750Z,2.07
2018-02-11T00:47:49.742Z,2.11
2018-02-11T00:47:53.738Z,2.11
2018-02-11T00:47:57.631Z,2.09
2018-02-11T00:48:01.417Z,2.08
2018-02-11T00:48:05.308Z,2.09
2018-02-11T00:48:09.419Z,2.12
2018-02-11T00:48:13.465Z,2.14
2018-02-11T00:48:17.354Z,2.19
2018-02-11T00:48:21.142Z,2.08
2018-02-11T00:48:24.933Z,2.09
2018-02-11T00:48:28.725Z,2.11
2018-02-11T00:48:32.832Z,2.08
2018-02-11T00:48:36.724Z,2.11
2018-02-11T00:48:40.404Z,2.05
2018-02-11T00:48:44.193Z,2.15
2018-02-11T00:48:47.876Z,2.11
2018-02-11T00:48:51.877Z,2.11
2018-02-11T00:48:55.670Z,2.12
2018-02-11T00:48:59.459Z,2.07
2018-02-11T00:49:03.713Z,2.08
2018-02-11T00:49:07.608Z,2.05
2018-02-11T00:49:11.604Z,2.11
2018-02-11T00:49:15.281Z,2.14
2018-02-11T00:49:19.071Z,2.19
2018-02-11T00:49:22.751Z,2.08
2018-02-11T00:49:26.546Z,2.08
2018-02-11T00:49:30.335Z,2.05
2018-02-11T00:49:34.228Z,2.12
2018-02-11T00:49:38.220Z,2.15
2018-02-11T00:49:42.007Z,2.08
2018-02-11T00:49:46.107Z,2.09
2018-02-11T00:49:49.903Z,2.09
2018-02-11T00:49:53.899Z,2.08
2018-02-11T00:49:57.791Z,2.11
2018-02-11T00:50:02.039Z,2.09
2018-02-11T00:50:06.139Z,2.14
2018-02-11T00:50:09.933Z,2.15
2018-02-11T00:50:14.034Z,2.15
2018-02-11T00:50:17.927Z,2.09
2018-02-11T00:50:21.926Z,2.12
2018-02-11T00:50:25.611Z,2.05
2018-02-11T00:50:29.715Z,2.18
2018-02-11T00:50:33.718Z,2.05
2018-02-11T00:50:37.819Z,2.11
2018-02-11T00:50:41.710Z,2.15
2018-02-11T00:50:45.918Z,2.14
2018-02-11T00:50:49.807Z,2.08
2018-02-11T00:50:53.594Z,2.15
2018-02-11T00:50:57.487Z,2.18
2018-02-11T00:51:01.172Z,2.07
2018-02-11T00:51:05.428Z,2.09
2018-02-11T00:51:09.426Z,2.09
2018-02-11T00:51:13.429Z,2.12
2018-02-11T00:51:17.221Z,2.12
2018-02-11T00:51:21.005Z,2.08
2018-02-11T00:51:24.906Z,2.11
2018-02-11T00:51:28.804Z,2.08
2018-02-11T00:51:32.797Z,2.14
2018-02-11T00:51:36.790Z,2.15
2018-02-11T00:51:40.583Z,2.09
2018-02-11T00:51:44.383Z,2.14
2018-02-11T00:51:48.301Z,2.19
2018-02-11T00:51:52.628Z,2.15
2018-02-11T00:51:56.682Z,2.11
2018-02-11T00:52:00.464Z,2.15
2018-02-11T00:52:04.410Z,2.12
2018-02-11T00:52:08.200Z,2.12
2018-02-11T00:52:12.098Z,2.15
2018-02-11T00:52:15.985Z,2.14
2018-02-11T00:52:19.769Z,2.09
2018-02-11T00:52:23.770Z,2.14
2018-02-11T00:52:27.656Z,2.05
2018-02-11T00:52:31.445Z,2.08
2018-02-11T00:52:35.547Z,2.18
2018-02-11T00:52:39.330Z,2.08
2018-02-11T00:52:43.015Z,2.14